Portada
METAR-TAF:

METAR-TAF

Aeropuertos :

Orange, Francia

latitud: 44-08N, longitud: 004-50E, altitud: 60 m

Observación

El informe se hizo hace 40 minutos, a las 17:30 UTC
Viento 2 kt del este
Temperatura 17°C
Humedad 77%
Presión 1026 hPa
Visibilidad 10 km o más
Escasas nubes a una altura de 4400 ft
Cielo cubierto a una altura de 6000 ft

METAR: LFMO 191730Z AUTO 10002KT 9999 FEW044 OVC060 17/13 Q1026 NOSIG

Hora: 20:10 (18:10 UTC)

Pronóstico

El informe se hizo hace 4 horas y 10 minutos, a las 14:00 UTC
Pronóstico válido del 19 a las 15 UTC al 20 a las 15 UTC
Viento 2 kt con dirección variable
Visibilidad 10 km o más
Cielo nuboso a una altura de 5600 ft
Evolucionando progresivamente
del 20 a las 00 UTC al 20 a las 02 UTC
Viento 10 kt del sureste

TAF: LFMO 191400Z 1915/2015 VRB02KT 9999 BKN056 TX18/2014Z TN14/2006Z BECMG 2000/2002 13010KT

Observaciones y pronósticos meteorológicos de más de 4000 aeropuertos (mensajes METAR y TAF).

Los puntos amarillos y rojos representan las estaciones disponibles.

Ponga el ratón en el punto deseado para ver el nombre de la estación.

Haga clic para ver las observaciones y los pronósticos meteorológicos.

Para cambiar el mapa : haga clic en los botones verdes con una cruz de color negro para hacer un zoom, en el botón verde con un guión para alejar o en las flechas verdes para mapas adyacentes.


METAR-TAF: